Time;durP1;ratioP1;P1;durP2;ratioP2;P2;SDS_P1;SDS_P2;PMS_P1;PMS_P2;Temp;Humidity;BMP_temperature;BMP_pressure;BME280_temperature;BME280_humidity;BME280_pressure;Samples;Min_cycle;Max_cycle;Signal;HPM_P1;HPM_P2
2021/07/11 00:00:55;;;;;;;6.33;5.80;;;;;;;17.50;72.65;99020.92;125134;1090;64281;-81
2021/07/11 00:03:23;;;;;;;6.07;5.40;;;;;;;17.51;72.50;99021.80;125135;1090;64262;-82
2021/07/11 00:05:50;;;;;;;8.67;6.13;;;;;;;17.51;72.38;99021.80;125096;1090;64210;-82
2021/07/11 00:08:17;;;;;;;6.83;6.00;;;;;;;17.50;72.40;99026.31;125188;1090;64294;-82
2021/07/11 00:10:44;;;;;;;7.05;6.45;;;;;;;17.48;72.47;99016.67;125184;1090;64289;-81
2021/07/11 00:13:12;;;;;;;6.50;5.90;;;;;;;17.45;72.92;99019.67;125145;1090;64266;-81
2021/07/11 00:15:39;;;;;;;7.23;5.93;;;;;;;17.41;72.97;99024.51;125161;1090;64265;-81
2021/07/11 00:18:06;;;;;;;7.10;5.87;;;;;;;17.38;72.91;99022.11;125188;1090;64250;-81
2021/07/11 00:20:34;;;;;;;7.23;6.60;;;;;;;17.35;73.48;99027.77;125158;1088;64712;-81
2021/07/11 00:23:01;;;;;;;7.70;5.87;;;;;;;17.30;73.58;99017.45;125146;1090;64310;-81
2021/07/11 00:25:28;;;;;;;11.27;6.30;;;;;;;17.29;73.87;99018.42;125169;1090;64351;-80
2021/07/11 00:27:56;;;;;;;7.90;7.13;;;;;;;17.32;73.93;99022.67;125207;1088;64297;-80
2021/07/11 00:30:25;;;;;;;7.87;7.07;;;;;;;17.33;74.14;99013.62;125180;1090;64259;-80
2021/07/11 00:32:54;;;;;;;8.10;7.30;;;;;;;17.34;73.96;99023.38;125126;1090;64293;-80
2021/07/11 00:35:21;;;;;;;7.67;6.87;;;;;;;17.32;74.36;99019.98;125125;1090;64210;-81
2021/07/11 00:37:49;;;;;;;7.67;6.87;;;;;;;17.29;74.09;99015.73;125094;1090;64389;-81
2021/07/11 00:40:17;;;;;;;8.13;7.43;;;;;;;17.27;74.38;99019.56;125124;1090;64283;-82
2021/07/11 00:42:45;;;;;;;7.55;6.85;;;;;;;17.25;74.47;99019.72;125218;1090;64338;-81
2021/07/11 00:45:14;;;;;;;7.90;7.10;;;;;;;17.24;74.29;99015.31;125148;1090;64261;-84
2021/07/11 00:47:42;;;;;;;8.05;7.35;;;;;;;17.22;74.83;99014.63;125101;1090;64283;-81
2021/07/11 00:50:13;;;;;;;8.30;7.43;;;;;;;17.21;74.64;99007.52;125227;1090;64287;-81
2021/07/11 00:52:40;;;;;;;7.73;7.13;;;;;;;17.19;75.24;99005.97;125152;1089;64188;-81
2021/07/11 00:55:09;;;;;;;9.27;8.33;;;;;;;17.17;74.89;99005.26;125156;1090;64227;-81
2021/07/11 00:57:36;;;;;;;9.07;8.17;;;;;;;17.17;75.10;98998.05;125223;1090;64284;-81
2021/07/11 01:00:10;;;;;;;8.90;8.10;;;;;;;17.17;75.06;99007.95;125192;1090;64191;-81
2021/07/11 01:02:48;;;;;;;9.10;8.07;;;;;;;17.16;75.33;99004.41;125196;1090;64325;-81
2021/07/11 01:05:16;;;;;;;9.00;8.20;;;;;;;17.14;75.84;99006.42;125214;1090;64273;-80
2021/07/11 01:07:49;;;;;;;9.37;8.13;;;;;;;17.11;75.26;99004.88;125236;1090;64287;-81
2021/07/11 01:10:43;;;;;;;10.47;9.33;;;;;;;17.11;75.75;99002.17;125195;1090;64267;-80
2021/07/11 01:13:14;;;;;;;9.27;8.47;;;;;;;17.07;76.13;98995.37;125134;1090;64530;-80
2021/07/11 01:15:46;;;;;;;10.33;9.37;;;;;;;17.07;76.05;98997.22;125133;1090;64348;-81
2021/07/11 01:18:17;;;;;;;9.83;9.00;;;;;;;17.05;76.08;98996.50;125179;1090;64221;-81
2021/07/11 01:20:48;;;;;;;10.40;9.40;;;;;;;17.04;76.10;99005.59;125115;1089;64264;-82
2021/07/11 01:23:41;;;;;;;9.63;8.77;;;;;;;17.03;76.44;99006.56;125155;1090;64280;-81
2021/07/11 01:26:11;;;;;;;10.23;9.40;;;;;;;17.03;76.82;99001.17;125085;1090;64370;-81
2021/07/11 01:28:40;;;;;;;11.10;10.00;;;;;;;17.04;76.92;98997.51;125101;1090;64306;-81
2021/07/11 01:31:10;;;;;;;10.13;9.13;;;;;;;17.05;77.41;99001.89;125219;1090;64223;-81
2021/07/11 01:33:39;;;;;;;;;;;;;;;17.07;77.44;99005.30;125213;1090;64197;-81
2021/07/11 01:36:08;;;;;;;10.60;9.67;;;;;;;17.08;77.04;99004.28;125113;1090;64353;-81
2021/07/11 01:38:37;;;;;;;10.43;9.43;;;;;;;17.10;77.29;99010.39;125148;1090;64361;-81
2021/07/11 01:41:07;;;;;;;11.47;9.23;;;;;;;17.10;77.41;99011.23;125165;1090;64290;-81
2021/07/11 01:43:34;;;;;;;;;;;;;;;17.12;77.55;99011.10;125120;1090;64675;-83
2021/07/11 01:46:04;;;;;;;10.10;9.20;;;;;;;17.12;77.60;99013.80;125175;1090;64261;-80
2021/07/11 01:48:32;;;;;;;;;;;;;;;17.11;77.94;99012.95;125177;1090;64260;-80
2021/07/11 01:51:01;;;;;;;10.47;9.47;;;;;;;17.10;77.70;99008.53;125136;1089;64216;-81
2021/07/11 01:53:31;;;;;;;11.60;10.47;;;;;;;17.10;77.44;99013.92;125178;1090;64335;-81
2021/07/11 01:55:59;;;;;;;11.03;9.93;;;;;;;17.10;77.54;99016.61;125157;1090;64638;-81
2021/07/11 01:58:26;;;;;;;10.93;9.70;;;;;;;17.09;78.44;99006.01;125153;1090;64152;-81
2021/07/11 02:00:55;;;;;;;10.00;9.10;;;;;;;17.08;78.42;99012.37;125156;1089;64756;-81
2021/07/11 02:03:25;;;;;;;10.60;9.80;;;;;;;17.07;78.71;99013.38;125224;1090;64284;-81
2021/07/11 02:05:54;;;;;;;9.60;8.80;;;;;;;17.05;78.93;99016.20;125197;1090;64348;-81
2021/07/11 02:08:22;;;;;;;11.15;10.25;;;;;;;17.04;78.99;99011.81;125233;1090;64210;-81
2021/07/11 02:10:53;;;;;;;10.70;9.57;;;;;;;17.02;79.06;99012.95;125149;1090;64265;-81
2021/07/11 02:13:24;;;;;;;12.23;11.10;;;;;;;17.02;78.90;99021.88;125230;1090;64268;-81
2021/07/11 02:15:54;;;;;;;11.67;10.67;;;;;;;17.02;79.20;99015.64;125193;1090;64371;-81
2021/07/11 02:18:25;;;;;;;12.08;11.03;;;;;;;17.01;78.75;99012.11;125138;1090;64277;-80
2021/07/11 02:20:54;;;;;;;11.40;10.40;;;;;;;16.99;79.33;99007.86;125233;1090;64268;-82
2021/07/11 02:23:29;;;;;;;13.03;11.73;;;;;;;16.97;79.00;99009.84;125335;1090;64284;-81
2021/07/11 02:25:58;;;;;;;12.50;11.30;;;;;;;16.96;79.73;99008.99;125146;1088;64271;-81
2021/07/11 02:28:29;;;;;;;12.97;11.67;;;;;;;16.93;79.19;99011.97;125155;1090;64187;-81
2021/07/11 02:31:02;;;;;;;11.93;10.93;;;;;;;16.92;79.77;99010.26;125093;1090;64354;-81
2021/07/11 02:33:36;;;;;;;13.50;12.00;;;;;;;16.90;79.46;99012.23;125148;1090;64214;-81
2021/07/11 02:36:10;;;;;;;13.37;12.17;;;;;;;16.90;79.31;99012.23;125141;1090;64219;-81
2021/07/11 02:38:53;;;;;;;11.65;10.55;;;;;;;16.88;79.88;99008.86;125124;1090;64386;-81
2021/07/11 02:41:25;;;;;;;12.07;10.97;;;;;;;16.85;79.90;99004.61;125096;1090;64230;-80
2021/07/11 02:43:53;;;;;;;12.83;11.63;;;;;;;16.86;79.71;99008.14;125114;1090;64388;-81
2021/07/11 02:46:25;;;;;;;12.63;11.53;;;;;;;16.84;80.00;99007.43;125088;1090;64279;-80
2021/07/11 02:48:53;;;;;;;12.90;11.65;;;;;;;16.84;80.25;99007.43;125069;1090;64185;-81
2021/07/11 02:51:26;;;;;;;12.70;11.30;;;;;;;16.84;80.40;98999.36;125092;1090;64265;-80
2021/07/11 02:53:57;;;;;;;13.30;12.10;;;;;;;16.83;80.53;98997.67;125184;1090;64187;-80
2021/07/11 02:56:26;;;;;;;14.43;11.57;;;;;;;16.84;80.36;98996.66;125115;1091;64331;-81
2021/07/11 02:58:58;;;;;;;12.10;10.85;;;;;;;16.85;80.78;99006.42;125220;1090;64265;-82
2021/07/11 03:01:27;;;;;;;11.97;10.97;;;;;;;16.86;80.79;99005.45;125081;1090;64281;-82
2021/07/11 03:03:57;;;;;;;12.33;11.33;;;;;;;16.87;81.24;98999.91;125166;1089;64185;-81
2021/07/11 03:06:24;;;;;;;13.87;12.60;;;;;;;16.87;81.34;98999.91;125133;1090;64185;-81
2021/07/11 03:08:51;;;;;;;13.57;12.37;;;;;;;16.87;81.20;99002.60;125149;1090;64245;-81
2021/07/11 03:11:19;;;;;;;14.33;12.93;;;;;;;16.87;81.16;98994.52;125123;1090;64319;-81
2021/07/11 03:13:47;;;;;;;14.67;12.80;;;;;;;16.91;81.10;99007.73;125104;1090;64265;-81
2021/07/11 03:16:15;;;;;;;14.27;13.00;;;;;;;16.96;80.95;99005.45;125136;1090;64273;-81
2021/07/11 03:18:43;;;;;;;14.10;12.80;;;;;;;17.00;81.10;99001.47;125071;1089;64303;-81
2021/07/11 03:21:12;;;;;;;12.60;11.40;;;;;;;17.06;81.54;99000.88;125134;1090;64322;-81
2021/07/11 03:23:40;;;;;;;13.10;12.00;;;;;;;17.10;80.77;99005.84;125204;1089;64218;-81
2021/07/11 03:26:08;;;;;;;14.87;12.57;;;;;;;17.17;81.35;99007.95;125258;1090;64277;-81
2021/07/11 03:28:36;;;;;;;13.87;12.53;;;;;;;17.30;81.12;99009.37;125158;1090;64268;-81
2021/07/11 03:31:10;;;;;;;12.45;11.45;;;;;;;17.94;79.91;99004.20;125138;1090;64412;-81
2021/07/11 03:33:42;;;;;;;11.87;10.97;;;;;;;18.64;78.29;98999.94;125221;1090;64326;-81
2021/07/11 03:36:13;;;;;;;12.07;11.17;;;;;;;19.24;77.04;98995.72;125130;1090;64187;-80
2021/07/11 03:38:47;;;;;;;11.37;10.37;;;;;;;19.74;76.37;98998.59;125183;1090;64241;-79
2021/07/11 03:41:19;;;;;;;10.63;9.67;;;;;;;20.22;74.51;98995.41;125190;1090;64219;-80
2021/07/11 03:43:52;;;;;;;11.73;10.60;;;;;;;20.65;73.60;99004.36;125166;1090;64622;-81
2021/07/11 03:46:23;;;;;;;14.60;11.27;;;;;;;21.13;72.68;99008.11;125154;1090;64372;-81
2021/07/11 03:48:57;;;;;;;12.20;11.30;;;;;;;21.58;71.04;99001.30;125133;1090;64290;-81
2021/07/11 03:51:29;;;;;;;11.20;10.40;;;;;;;21.92;70.38;98996.44;125189;1090;64304;-81
2021/07/11 03:53:59;;;;;;;11.10;10.13;;;;;;;22.30;69.72;98999.38;125103;1089;63092;-81
2021/07/11 03:56:30;;;;;;;11.20;10.40;;;;;;;22.58;68.45;98988.83;125158;1090;64268;-81
2021/07/11 03:58:59;;;;;;;13.40;12.23;;;;;;;22.89;67.80;98984.38;125180;1090;64306;-81
2021/07/11 04:01:33;;;;;;;12.43;11.43;;;;;;;23.25;66.49;98986.47;125111;1090;64267;-81
2021/07/11 04:04:04;;;;;;;11.60;10.70;;;;;;;23.48;65.58;98983.70;125248;1090;64283;-81
2021/07/11 04:06:32;;;;;;;11.87;10.87;;;;;;;23.66;64.78;98985.02;125157;1090;64309;-80
2021/07/11 04:09:04;;;;;;;10.80;9.97;;;;;;;23.90;63.92;98983.08;125180;1090;64265;-80
2021/07/11 04:11:35;;;;;;;11.43;10.43;;;;;;;24.06;62.52;98973.86;125242;1090;64466;-81
2021/07/11 04:14:04;;;;;;;11.23;10.33;;;;;;;24.31;62.61;98977.12;125161;1090;64257;-81
2021/07/11 04:16:33;;;;;;;10.47;9.73;;;;;;;24.56;62.12;98982.23;125125;1090;64187;-81
2021/07/11 04:19:01;;;;;;;11.10;10.30;;;;;;;24.71;60.89;98980.30;125054;1090;64309;-80
2021/07/11 04:21:31;;;;;;;10.93;10.07;;;;;;;24.83;60.03;98975.17;125023;1090;64210;-81
2021/07/11 04:23:59;;;;;;;12.23;10.93;;;;;;;24.75;60.05;98974.28;125152;1090;64280;-80
2021/07/11 04:26:32;;;;;;;11.03;10.13;;;;;;;24.97;60.06;98977.84;125094;1090;64237;-79
2021/07/11 04:29:01;;;;;;;11.87;10.97;;;;;;;25.00;59.06;98975.77;125181;1090;64357;-81
2021/07/11 04:31:28;;;;;;;10.87;10.07;;;;;;;25.03;58.80;98968.02;125207;1090;64156;-81
2021/07/11 04:33:55;;;;;;;11.25;10.50;;;;;;;25.12;58.00;98975.04;125114;1090;64309;-80
2021/07/11 04:36:22;;;;;;;11.83;10.93;;;;;;;24.96;58.27;98972.56;125058;1091;64268;-80
2021/07/11 04:38:50;;;;;;;11.90;11.00;;;;;;;25.14;57.75;98974.83;125034;1091;64328;-80
2021/07/11 04:41:17;;;;;;;11.40;10.50;;;;;;;25.26;56.53;98976.02;125079;1090;64281;-80
2021/07/11 04:43:44;;;;;;;12.03;10.87;;;;;;;25.39;57.02;98967.93;125041;1091;64271;-80
2021/07/11 04:46:12;;;;;;;11.30;10.50;;;;;;;25.55;56.08;98974.97;125057;1090;64325;-81
2021/07/11 04:48:39;;;;;;;10.57;9.77;;;;;;;25.77;56.64;98972.16;125115;1090;64290;-81
2021/07/11 04:51:06;;;;;;;11.40;10.60;;;;;;;25.98;55.29;98980.28;125110;1090;64743;-81
2021/07/11 04:53:33;;;;;;;11.03;10.23;;;;;;;25.93;54.48;98973.73;125135;1090;64300;-80
2021/07/11 04:56:01;;;;;;;11.37;10.37;;;;;;;25.84;55.15;98970.34;125133;1089;64290;-80
2021/07/11 04:58:29;;;;;;;11.50;10.70;;;;;;;25.99;55.06;98972.95;125059;1090;64267;-81
2021/07/11 05:00:56;;;;;;;11.33;10.53;;;;;;;26.05;55.02;98961.20;125197;1090;64287;-80
2021/07/11 05:03:23;;;;;;;11.57;10.77;;;;;;;26.24;54.65;98963.16;125082;1090;64323;-80
2021/07/11 05:05:50;;;;;;;12.43;11.40;;;;;;;26.32;54.08;98962.14;125127;1090;64281;-81
2021/07/11 05:08:18;;;;;;;11.97;10.93;;;;;;;26.36;53.94;98960.70;125100;1090;64316;-82
2021/07/11 05:10:45;;;;;;;10.37;9.67;;;;;;;26.47;53.85;98961.98;125132;1090;64364;-81
2021/07/11 05:13:12;;;;;;;10.87;10.07;;;;;;;26.71;53.17;98964.16;125111;1088;64284;-81
2021/07/11 05:15:40;;;;;;;11.43;10.63;;;;;;;26.75;52.74;98955.55;125107;1090;64268;-80
2021/07/11 05:18:07;;;;;;;10.60;9.70;;;;;;;26.87;53.17;98951.98;125165;1090;64306;-80
2021/07/11 05:20:34;;;;;;;9.60;8.90;;;;;;;27.01;52.86;98961.03;125018;1090;64354;-80
2021/07/11 05:23:01;;;;;;;10.60;9.70;;;;;;;27.08;52.14;98956.41;125082;1090;64187;-81
2021/07/11 05:25:32;;;;;;;9.30;8.70;;;;;;;27.06;52.41;98958.52;125117;1090;64338;-80
2021/07/11 05:28:01;;;;;;;9.60;8.83;;;;;;;27.23;51.71;98960.88;125097;1090;64283;-80
2021/07/11 05:30:29;;;;;;;9.87;8.93;;;;;;;27.29;51.17;98960.03;125124;1090;64245;-79
2021/07/11 05:32:56;;;;;;;10.33;9.53;;;;;;;27.21;51.28;98950.14;125096;1090;64246;-80
2021/07/11 05:35:24;;;;;;;9.60;9.00;;;;;;;27.27;51.03;98953.91;125091;1090;64559;-80
2021/07/11 05:37:51;;;;;;;9.63;8.83;;;;;;;27.42;50.84;98953.70;125112;1090;64357;-79
2021/07/11 05:40:18;;;;;;;9.70;9.00;;;;;;;27.41;50.16;98955.61;125019;1090;64222;-81
2021/07/11 05:42:45;;;;;;;9.43;8.63;;;;;;;27.28;50.44;98955.63;125171;1090;64280;-81
2021/07/11 05:45:14;;;;;;;8.10;7.60;;;;;;;26.75;50.64;98953.64;125115;1091;64268;-80
2021/07/11 05:47:42;;;;;;;9.50;8.90;;;;;;;26.69;51.18;98960.79;125126;1090;64152;-79
2021/07/11 05:50:10;;;;;;;9.53;8.80;;;;;;;26.66;51.44;98953.01;125136;1090;64396;-80
2021/07/11 05:52:37;;;;;;;10.30;9.40;;;;;;;26.86;50.97;98957.69;125223;1090;64268;-81
2021/07/11 05:55:06;;;;;;;10.03;9.03;;;;;;;26.81;51.10;98954.73;125130;1090;64290;-80
2021/07/11 05:57:34;;;;;;;10.13;9.33;;;;;;;26.69;51.91;98959.95;125112;1090;64348;-80
2021/07/11 06:00:03;;;;;;;8.83;8.23;;;;;;;26.84;51.70;98957.88;125117;1088;64304;-79
2021/07/11 06:02:30;;;;;;;9.38;8.70;;;;;;;26.96;51.37;98954.52;125144;1089;64213;-80
2021/07/11 06:04:57;;;;;;;9.40;8.57;;;;;;;27.22;51.33;98951.81;125164;1090;64287;-81
2021/07/11 06:07:25;;;;;;;12.43;8.40;;;;;;;27.48;51.10;98944.63;125125;1089;64341;-81
2021/07/11 06:09:52;;;;;;;8.87;8.07;;;;;;;27.63;50.43;98947.97;125144;1090;64286;-80
2021/07/11 06:12:19;;;;;;;9.17;8.37;;;;;;;27.77;50.94;98955.09;125157;1090;64393;-80
2021/07/11 06:14:46;;;;;;;9.40;8.67;;;;;;;28.01;50.37;98956.30;125201;1090;64347;-80
2021/07/11 06:17:13;;;;;;;8.77;7.97;;;;;;;28.04;49.93;98948.71;125137;1090;64264;-80
2021/07/11 06:19:40;;;;;;;9.43;8.73;;;;;;;28.09;49.99;98948.91;125010;1090;64284;-81
2021/07/11 06:22:07;;;;;;;9.00;8.40;;;;;;;28.06;49.79;98950.18;125168;1090;64246;-81
2021/07/11 06:24:34;;;;;;;8.60;7.83;;;;;;;27.98;49.71;98947.69;125109;1090;64369;-79
2021/07/11 06:27:03;;;;;;;7.23;6.73;;;;;;;28.14;50.29;98946.35;125091;1090;64441;-80
2021/07/11 06:29:32;;;;;;;7.80;7.20;;;;;;;28.38;49.88;98942.02;125185;1090;64283;-79
2021/07/11 06:31:59;;;;;;;7.63;7.07;;;;;;;28.31;50.15;98939.33;125077;1090;64265;-81
2021/07/11 06:34:26;;;;;;;6.77;6.30;;;;;;;28.41;49.96;98947.92;125141;1090;64292;-80
2021/07/11 06:36:53;;;;;;;6.55;6.05;;;;;;;28.63;49.94;98951.19;125070;1090;64269;-81
2021/07/11 06:39:21;;;;;;;7.03;6.43;;;;;;;28.53;48.82;98961.79;125194;1090;64281;-79
2021/07/11 06:41:48;;;;;;;6.70;6.10;;;;;;;28.28;49.93;98947.99;125134;1090;64280;-80
2021/07/11 06:44:16;;;;;;;6.57;6.07;;;;;;;28.31;50.40;98952.20;125121;1090;64188;-79
2021/07/11 06:46:43;;;;;;;6.15;5.65;;;;;;;28.37;49.72;98952.14;125119;1090;64181;-81
2021/07/11 06:49:10;;;;;;;7.20;6.60;;;;;;;28.22;48.90;98948.84;125097;1090;64361;-80
2021/07/11 06:51:38;;;;;;;6.80;6.40;;;;;;;27.91;49.66;98961.42;125024;1090;64785;-81
2021/07/11 06:54:05;;;;;;;6.60;6.00;;;;;;;27.92;50.55;98954.03;125052;1090;64290;-81
2021/07/11 06:56:32;;;;;;;7.73;6.87;;;;;;;27.88;50.19;98950.87;125132;1090;64248;-81
2021/07/11 06:59:00;;;;;;;7.00;6.37;;;;;;;27.70;50.52;98934.25;125165;1090;64303;-81
2021/07/11 07:01:27;;;;;;;6.90;6.50;;;;;;;27.57;50.86;98941.46;125115;1090;64399;-81
2021/07/11 07:03:54;;;;;;;7.67;7.07;;;;;;;27.06;50.78;98936.63;125194;1090;64278;-81
2021/07/11 07:06:23;;;;;;;7.10;6.50;;;;;;;26.84;51.83;98933.27;125172;1089;64287;-80
2021/07/11 07:08:50;;;;;;;7.30;6.80;;;;;;;26.81;52.23;98939.16;125115;1090;64268;-80
2021/07/11 07:11:17;;;;;;;6.75;6.25;;;;;;;26.78;52.74;98938.72;125116;1090;64325;-80
2021/07/11 07:13:44;;;;;;;7.63;7.03;;;;;;;26.50;52.43;98929.61;125100;1090;64280;-79
2021/07/11 07:16:11;;;;;;;6.97;6.47;;;;;;;26.35;53.30;98925.37;125157;1090;64438;-80
2021/07/11 07:18:38;;;;;;;7.20;6.63;;;;;;;26.26;53.90;98924.72;125074;1090;64168;-80
2021/07/11 07:21:06;;;;;;;6.97;6.40;;;;;;;26.20;53.90;98920.92;125122;1089;64268;-80
2021/07/11 07:23:33;;;;;;;6.80;6.40;;;;;;;26.20;54.30;98918.20;125138;1090;64280;-81
2021/07/11 07:26:00;;;;;;;7.13;6.43;;;;;;;26.13;54.54;98913.75;125047;1090;64422;-80
2021/07/11 07:28:28;;;;;;;6.90;6.23;;;;;;;26.20;54.69;98920.92;125145;1090;64421;-81
2021/07/11 07:30:56;;;;;;;7.07;6.50;;;;;;;26.28;54.39;98909.81;125186;1090;64217;-81
2021/07/11 07:33:24;;;;;;;7.50;6.90;;;;;;;25.99;54.63;98910.98;125203;1090;64214;-80
2021/07/11 07:35:51;;;;;;;7.90;6.70;;;;;;;25.78;55.70;98911.91;125133;1090;64323;-80
2021/07/11 07:38:18;;;;;;;7.03;6.47;;;;;;;25.78;56.13;98911.06;125204;1090;64400;-80
2021/07/11 07:40:46;;;;;;;7.30;6.60;;;;;;;25.81;56.41;98921.58;125080;1090;64434;-80
2021/07/11 07:43:13;;;;;;;6.93;6.43;;;;;;;26.00;57.08;98922.73;125031;1090;64169;-81
2021/07/11 07:45:43;;;;;;;7.17;6.60;;;;;;;26.19;56.62;98935.61;125146;1090;64367;-80
2021/07/11 07:48:11;;;;;;;6.90;6.43;;;;;;;26.17;56.43;98925.94;125274;1089;64309;-81
2021/07/11 07:50:40;;;;;;;6.97;6.37;;;;;;;26.13;56.71;98930.98;125164;1090;64246;-81
2021/07/11 07:53:07;;;;;;;6.93;6.37;;;;;;;26.10;56.50;98931.39;125285;1090;64210;-85
2021/07/11 07:55:35;;;;;;;7.07;6.57;;;;;;;26.09;56.09;98931.59;125143;1091;64306;-84
2021/07/11 07:58:03;;;;;;;6.60;6.10;;;;;;;26.05;56.36;98942.09;125186;1090;64210;-80
2021/07/11 08:00:31;;;;;;;7.08;6.50;;;;;;;26.03;56.38;98942.28;125147;1090;64361;-81
2021/07/11 08:02:59;;;;;;;7.40;6.70;;;;;;;26.06;56.83;98941.03;125185;1090;64380;-81
2021/07/11 08:05:28;;;;;;;6.60;6.10;;;;;;;26.28;57.38;98950.80;125329;1090;64290;-84
2021/07/11 08:07:55;;;;;;;6.95;6.45;;;;;;;26.44;56.26;98941.38;125237;1090;64273;-80
2021/07/11 08:10:23;;;;;;;6.83;6.33;;;;;;;26.48;56.79;98945.36;125153;1090;65888;-81
2021/07/11 08:12:50;;;;;;;7.00;6.50;;;;;;;26.61;56.48;98943.75;125227;1091;64280;-81
2021/07/11 08:15:19;;;;;;;6.63;6.10;;;;;;;26.66;56.79;98950.27;125242;1092;64357;-84
2021/07/11 08:17:48;;;;;;;7.30;6.63;;;;;;;26.93;56.33;98942.09;125282;1090;64185;-85
2021/07/11 08:20:18;;;;;;;6.98;6.58;;;;;;;27.12;55.71;98940.41;125283;1090;64287;-81
2021/07/11 08:22:45;;;;;;;7.87;6.57;;;;;;;27.34;55.50;98932.87;125447;1090;64268;-82
2021/07/11 08:25:14;;;;;;;6.57;6.17;;;;;;;27.61;54.90;98944.60;125406;1090;64756;-83
2021/07/11 08:27:43;;;;;;;7.73;6.70;;;;;;;27.53;54.05;98939.36;125250;1090;64322;-83
2021/07/11 08:30:12;;;;;;;7.50;6.80;;;;;;;27.52;54.20;98940.42;125331;1090;64211;-81
2021/07/11 08:32:41;;;;;;;5.80;5.35;;;;;;;27.62;54.00;98934.48;125347;1090;64232;-84
2021/07/11 08:35:09;;;;;;;6.13;5.63;;;;;;;27.67;54.23;98929.20;125254;1090;64291;-82
2021/07/11 08:37:37;;;;;;;6.95;6.35;;;;;;;27.86;54.10;98935.70;125444;1090;64237;-83
2021/07/11 08:40:07;;;;;;;6.00;5.50;;;;;;;27.93;53.17;98929.15;125274;1090;64341;-81
2021/07/11 08:42:36;;;;;;;6.67;5.83;;;;;;;27.78;53.24;98934.88;125399;1090;64269;-81
2021/07/11 08:45:04;;;;;;;;;;;;;;;27.98;53.38;98921.13;125368;1090;64271;-82
2021/07/11 08:47:31;;;;;;;6.80;5.75;;;;;;;28.43;53.41;98920.27;125127;1090;64313;-82
2021/07/11 08:49:59;;;;;;;6.00;5.60;;;;;;;28.88;53.13;98926.55;125206;1090;64287;-81
2021/07/11 08:52:26;;;;;;;6.57;5.97;;;;;;;28.97;50.58;98916.13;125161;1091;64377;-79
2021/07/11 08:54:53;;;;;;;6.17;5.67;;;;;;;28.94;51.50;98915.71;125222;1090;64191;-81
2021/07/11 08:57:20;;;;;;;5.87;5.37;;;;;;;29.11;50.69;98916.88;125190;1090;64207;-81
2021/07/11 08:59:48;;;;;;;6.40;5.90;;;;;;;29.11;51.18;98908.64;125183;1090;64234;-82
2021/07/11 09:02:15;;;;;;;5.57;5.07;;;;;;;29.29;51.55;98911.42;125178;1090;64373;-82
2021/07/11 09:04:45;;;;;;;5.93;5.50;;;;;;;29.43;51.15;98909.38;125107;1088;64399;-81
2021/07/11 09:07:23;;;;;;;6.20;5.60;;;;;;;29.29;50.86;98907.84;125122;1090;64360;-83
2021/07/11 09:10:00;;;;;;;6.10;5.55;;;;;;;29.18;50.73;98908.59;125133;1090;64219;-80
2021/07/11 09:12:27;;;;;;;6.60;6.13;;;;;;;28.96;50.84;98916.34;125156;1090;64258;-81
2021/07/11 09:14:55;;;;;;;5.30;5.00;;;;;;;28.79;51.17;98908.66;125189;1090;64303;-81
2021/07/11 09:17:22;;;;;;;6.03;5.53;;;;;;;28.76;51.13;98919.26;125104;1093;64345;-82
2021/07/11 09:19:51;;;;;;;6.40;5.90;;;;;;;28.64;51.13;98921.85;125140;1090;64300;-82
2021/07/11 09:22:22;;;;;;;6.28;5.78;;;;;;;28.57;51.89;98926.53;125278;1090;64267;-81
2021/07/11 09:24:58;;;;;;;6.60;6.00;;;;;;;28.56;51.61;98922.13;125267;1090;64289;-81
2021/07/11 09:27:28;;;;;;;6.30;5.85;;;;;;;28.98;52.23;98927.94;125202;1089;64388;-85
2021/07/11 09:30:07;;;;;;;6.50;5.83;;;;;;;29.21;51.19;98941.08;125205;1090;64689;-81
2021/07/11 09:32:35;;;;;;;5.75;5.35;;;;;;;29.30;51.40;98939.71;125287;1090;64386;-81
2021/07/11 09:35:13;;;;;;;5.97;5.60;;;;;;;29.26;50.50;98938.50;125205;1090;64386;-81
2021/07/11 09:37:43;;;;;;;6.83;6.20;;;;;;;29.05;50.79;98929.59;125187;1090;64387;-80
2021/07/11 09:40:13;;;;;;;6.83;6.23;;;;;;;28.95;50.57;98934.71;125090;1090;64188;-80
2021/07/11 09:42:43;;;;;;;6.70;6.20;;;;;;;29.27;50.74;98930.02;125100;1090;64228;-81
2021/07/11 09:45:26;;;;;;;6.23;5.83;;;;;;;29.73;50.23;98927.92;125144;1090;64211;-80
2021/07/11 09:48:05;;;;;;;6.43;5.93;;;;;;;29.94;49.81;98937.61;125186;1090;64280;-81
2021/07/11 09:50:32;;;;;;;7.20;6.50;;;;;;;29.90;49.46;98941.88;125168;1090;64421;-80
2021/07/11 09:53:00;;;;;;;6.60;6.00;;;;;;;29.73;49.38;98936.99;125148;1090;64237;-80
2021/07/11 09:55:30;;;;;;;6.83;6.17;;;;;;;29.49;49.73;98940.58;125211;1090;64268;-81
2021/07/11 09:58:08;;;;;;;7.77;6.50;;;;;;;29.34;49.80;98937.38;125156;1090;64255;-80
2021/07/11 10:00:41;;;;;;;6.67;6.23;;;;;;;29.36;49.99;98937.97;125206;1090;64208;-81
2021/07/11 10:03:15;;;;;;;6.93;6.43;;;;;;;29.25;49.96;98937.67;125090;1090;64337;-80
2021/07/11 10:05:46;;;;;;;6.67;6.27;;;;;;;29.37;50.42;98939.66;125152;1090;64325;-82
2021/07/11 10:08:13;;;;;;;7.50;6.73;;;;;;;29.57;50.37;98936.70;125200;1089;64229;-82
2021/07/11 10:10:42;;;;;;;7.60;7.10;;;;;;;29.71;50.31;98941.88;125077;1090;64379;-81
2021/07/11 10:13:10;;;;;;;7.03;6.43;;;;;;;29.78;50.19;98935.45;125137;1090;64244;-80
2021/07/11 10:15:39;;;;;;;6.00;5.50;;;;;;;29.88;50.02;98935.76;125167;1090;64267;-81
2021/07/11 10:18:12;;;;;;;5.95;5.45;;;;;;;29.99;50.09;98937.77;125171;1090;64268;-80
2021/07/11 10:20:48;;;;;;;6.47;5.87;;;;;;;29.86;49.63;98936.01;125128;1089;64297;-79
2021/07/11 10:23:28;;;;;;;6.97;6.40;;;;;;;29.64;50.88;98937.48;125182;1089;64354;-80
2021/07/11 10:25:58;;;;;;;6.70;6.30;;;;;;;29.41;50.19;98941.74;125119;1089;64280;-81
2021/07/11 10:28:31;;;;;;;6.43;5.97;;;;;;;29.23;50.18;98938.95;125266;1090;64191;-80
2021/07/11 10:30:58;;;;;;;6.70;6.13;;;;;;;29.23;50.94;98944.45;125146;1090;64281;-80
2021/07/11 10:33:27;;;;;;;6.43;5.83;;;;;;;29.28;50.75;98934.47;125157;1090;64271;-81
2021/07/11 10:36:00;;;;;;;6.60;6.10;;;;;;;29.38;50.71;98931.19;125231;1090;64409;-81
2021/07/11 10:38:30;;;;;;;6.87;6.37;;;;;;;29.32;50.92;98932.93;125156;1090;64188;-80
2021/07/11 10:41:20;;;;;;;6.77;6.10;;;;;;;29.11;50.90;98930.59;125011;1090;64248;-81
2021/07/11 10:44:09;;;;;;;7.00;6.50;;;;;;;28.86;51.23;98933.31;125188;1090;64242;-80
2021/07/11 10:46:44;;;;;;;7.20;6.70;;;;;;;28.80;51.38;98929.53;125163;1090;64265;-79
2021/07/11 10:49:25;;;;;;;6.40;6.00;;;;;;;28.59;51.67;98932.64;125192;1089;64392;-81
2021/07/11 10:51:56;;;;;;;6.50;5.90;;;;;;;28.30;52.14;98929.41;125155;1090;64159;-80
2021/07/11 10:54:32;;;;;;;6.27;5.77;;;;;;;28.13;52.69;98937.30;125184;1090;64291;-80
2021/07/11 10:57:05;;;;;;;6.00;5.60;;;;;;;28.01;52.87;98947.24;125192;1090;64188;-80
2021/07/11 10:59:33;;;;;;;6.77;6.17;;;;;;;27.88;53.29;98961.83;125151;1089;64823;-80
2021/07/11 11:02:17;;;;;;;7.23;6.63;;;;;;;27.70;53.71;98954.28;125176;1090;64370;-79
2021/07/11 11:04:46;;;;;;;6.83;6.30;;;;;;;27.58;53.92;98943.13;125126;1090;64214;-80
2021/07/11 11:07:19;;;;;;;6.50;5.93;;;;;;;27.51;54.27;98947.77;125151;1090;64338;-80
2021/07/11 11:09:47;;;;;;;8.23;7.60;;;;;;;27.38;54.36;98955.17;125138;1091;62985;-81
2021/07/11 11:12:20;;;;;;;10.00;9.18;;;;;;;27.24;54.91;98978.97;125178;1090;64271;-81
2021/07/11 11:14:56;;;;;;;10.13;9.23;;;;;;;27.10;55.59;98973.47;125169;1090;64322;-79
2021/07/11 11:17:26;;;;;;;10.75;9.25;;;;;;;26.94;56.26;98971.16;125033;1090;64267;-80
2021/07/11 11:19:53;;;;;;;10.25;9.35;;;;;;;26.85;56.43;98964.19;125068;1089;64214;-80
2021/07/11 11:22:20;;;;;;;10.43;9.63;;;;;;;26.75;56.94;98967.31;125130;1090;64351;-80
2021/07/11 11:24:48;;;;;;;11.00;9.90;;;;;;;26.65;57.27;98978.67;125114;1090;65827;-80
2021/07/11 11:27:29;;;;;;;8.00;7.40;;;;;;;26.55;57.65;98985.59;125221;1090;64284;-79
2021/07/11 11:30:10;;;;;;;6.70;6.20;;;;;;;26.38;58.52;99007.77;125111;1088;64276;-80
2021/07/11 11:32:40;;;;;;;7.47;6.63;;;;;;;26.06;59.15;99031.16;125154;1090;64152;-80